| time (UTC) | temp F | wind direction | speed MPH | gust MPH | rain 1hr in | rain 24hr in | rain mn in | humidity % | barometer mb |
| 20260510111604 | 75 | 107 | 2.0 | 5.0 | 0.00 | 0.03 | 0.03 | 54 | 991.8 |
| 20260510105922 | 68 | 290 | 1.0 | 5.0 | 0.00 | 0.08 | 0.08 | 80 | 1009.1 |
| 20260510095920 | 64 | 332 | 1.0 | 2.0 | 0.00 | 0.08 | 0.08 | 88 | 1009.8 |
| 20260510091614 | 73 | 198 | 2.0 | 8.0 | 0.00 | 0.03 | 0.03 | 55 | 991.9 |
| 20260510085917 | 64 | 332 | 0.0 | 1.0 | 0.00 | 0.08 | 0.08 | 88 | 1010.0 |
| 20260510075914 | 64 | 251 | 0.0 | 3.0 | 0.00 | 0.08 | 0.08 | 87 | 1010.1 |
| 20260510071610 | 67 | 5 | 1.0 | 5.0 | 0.00 | 0.03 | 0.03 | 81 | 991.6 |
| 20260510055928 | 60 | 63 | 0.0 | 1.0 | 0.00 | 0.08 | 0.08 | 92 | 1010.2 |
| 20260510051213 | 62 | 323 | 2.0 | 5.0 | 0.00 | 0.03 | 0.03 | 85 | 991.4 |
| 20260510045916 | 59 | 53 | 0.0 | 1.0 | 0.00 | 0.08 | 0.08 | 94 | 1011.6 |
| 20260510031630 | 61 | 290 | 0.0 | 3.0 | 0.02 | 0.03 | 0.03 | 90 | 993.1 |
| 20260510025932 | 58 | 176 | 0.0 | 0.0 | 0.02 | 0.06 | 0.06 | 92 | 1012.5 |
| 20260510021220 | 61 | 335 | 0.0 | 2.0 | 0.02 | 0.02 | 0.02 | 86 | 993.2 |
| 20260510015928 | 58 | 244 | 0.0 | 3.0 | 0.04 | 0.05 | 0.04 | 90 | 1012.5 |
| 20260510011104 | 61 | 286 | 2.0 | 5.0 | 0.00 | 0.00 | 0.00 | 82 | 992.1 |
| 20260509235925 | 60 | 225 | 0.0 | 3.0 | 0.00 | 0.01 | 0.00 | 83 | 1012.6 |
| 20260509231600 | 61 | 311 | 0.0 | 0.0 | 0.00 | 0.00 | 0.00 | 84 | 992.5 |
| 20260509221241 | 61 | 309 | 0.0 | 0.0 | 0.00 | 0.00 | 0.00 | 85 | 993.3 |
| 20260509215949 | 60 | 171 | 0.0 | 2.0 | 0.00 | 0.01 | 0.00 | 81 | 1011.7 |
| 20260509201221 | 62 | 306 | 0.0 | 0.0 | 0.00 | 0.00 | 0.00 | 90 | 993.8 |
| 20260509195919 | 64 | 190 | 0.0 | 0.0 | 0.00 | 0.01 | 0.01 | 68 | 1012.4 |
| 20260509181605 | 63 | 60 | 0.0 | 2.0 | 0.00 | 0.00 | 0.00 | 89 | 993.0 |
| 20260509175934 | 68 | 259 | 1.0 | 2.0 | 0.00 | 0.01 | 0.01 | 66 | 1010.9 |
| 20260509161556 | 64 | 138 | 1.0 | 4.0 | 0.00 | 0.00 | 0.00 | 88 | 992.9 |
| 20260509155936 | 75 | 234 | 2.0 | 5.0 | 0.00 | 0.01 | 0.01 | 57 | 1011.6 |
| 20260509151544 | 64 | 127 | 1.0 | 4.0 | 0.00 | 0.00 | 0.00 | 88 | 992.8 |
| 20260509145926 | 76 | 259 | 2.0 | 6.0 | 0.00 | 0.01 | 0.01 | 56 | 1011.9 |
| 20260509141107 | 65 | 107 | 2.0 | 4.0 | 0.00 | 0.00 | 0.00 | 86 | 993.1 |
| 20260509125931 | 77 | 193 | 5.0 | 10.0 | 0.00 | 0.01 | 0.01 | 53 | 1013.1 |
| 20260509121633 | 67 | 187 | 3.0 | 7.0 | 0.00 | 0.00 | 0.00 | 83 | 993.0 |
| 20260509115920 | 76 | 219 | 3.0 | 8.0 | 0.00 | 0.01 | 0.01 | 53 | 1013.4 |